createdAt,value
2023-04-27T00:01:00.714Z,3.17
2023-04-27T00:03:28.346Z,2.20
2023-04-27T00:05:55.154Z,2.42
2023-04-27T00:08:21.762Z,2.65
2023-04-27T00:10:48.281Z,3.10
2023-04-27T00:13:14.682Z,2.67
2023-04-27T00:15:45.279Z,2.80
2023-04-27T00:18:14.731Z,2.92
2023-04-27T00:20:41.176Z,2.53
2023-04-27T00:23:07.560Z,2.72
2023-04-27T00:25:34.004Z,2.65
2023-04-27T00:28:00.636Z,2.80
2023-04-27T00:30:27.033Z,2.80
2023-04-27T00:32:53.600Z,2.92
2023-04-27T00:35:20.160Z,2.72
2023-04-27T00:37:46.719Z,2.88
2023-04-27T00:40:13.261Z,2.92
2023-04-27T00:42:39.665Z,2.90
2023-04-27T00:45:07.405Z,3.15
2023-04-27T00:47:34.918Z,3.03
2023-04-27T00:50:01.605Z,3.13
2023-04-27T00:52:28.053Z,3.88
2023-04-27T00:54:57.398Z,3.25
2023-04-27T00:59:50.234Z,3.25
2023-04-27T01:02:17.416Z,3.88
2023-04-27T01:04:44.412Z,3.55
2023-04-27T01:07:10.888Z,3.17
2023-04-27T01:09:37.373Z,2.97
2023-04-27T01:12:04.736Z,3.40
2023-04-27T01:14:31.137Z,3.70
2023-04-27T01:16:58.243Z,3.50
2023-04-27T01:19:24.794Z,3.28
2023-04-27T01:21:51.122Z,3.03
2023-04-27T01:24:17.617Z,3.13
2023-04-27T01:26:43.956Z,3.22
2023-04-27T01:29:10.921Z,3.20
2023-04-27T01:31:37.808Z,2.75
2023-04-27T01:34:04.214Z,2.80
2023-04-27T01:36:32.710Z,2.70
2023-04-27T01:38:59.103Z,3.50
2023-04-27T01:41:25.579Z,2.83
2023-04-27T01:43:53.393Z,2.80
2023-04-27T01:46:19.821Z,3.38
2023-04-27T01:48:46.357Z,3.10
2023-04-27T01:51:12.732Z,2.78
2023-04-27T01:53:39.065Z,2.85
2023-04-27T01:56:06.937Z,3.63
2023-04-27T01:58:33.358Z,3.22
2023-04-27T02:00:59.686Z,3.10
2023-04-27T02:03:26.246Z,3.30
2023-04-27T02:05:52.931Z,3.03
2023-04-27T02:08:19.371Z,3.55
2023-04-27T02:10:46.812Z,2.88
2023-04-27T02:13:13.175Z,2.78
2023-04-27T02:15:39.496Z,3.05
2023-04-27T02:18:06.096Z,3.00
2023-04-27T02:20:33.456Z,3.22
2023-04-27T02:23:00.139Z,3.80
2023-04-27T02:25:27.130Z,3.00
2023-04-27T02:27:53.788Z,3.13
2023-04-27T02:30:21.376Z,3.33
2023-04-27T02:32:48.400Z,3.17
2023-04-27T02:35:15.007Z,3.20
2023-04-27T02:37:41.636Z,2.88
2023-04-27T02:40:09.452Z,3.58
2023-04-27T02:42:38.123Z,3.10
2023-04-27T02:45:06.932Z,3.17
2023-04-27T02:47:33.402Z,3.50
2023-04-27T02:50:00.753Z,2.95
2023-04-27T02:52:27.680Z,2.97
2023-04-27T02:54:54.191Z,2.47
2023-04-27T02:57:20.722Z,2.80
2023-04-27T02:59:47.068Z,3.25
2023-04-27T03:02:13.607Z,3.15
2023-04-27T03:04:40.245Z,3.40
2023-04-27T03:07:06.669Z,3.72
2023-04-27T03:09:33.241Z,3.08
2023-04-27T03:14:26.174Z,3.50
2023-04-27T03:16:53.155Z,3.13
2023-04-27T03:19:19.653Z,3.35
2023-04-27T03:21:46.097Z,3.60
2023-04-27T03:24:12.397Z,3.13
2023-04-27T03:26:38.783Z,3.80
2023-04-27T03:29:05.216Z,3.28
2023-04-27T03:31:31.631Z,3.17
2023-04-27T03:33:58.436Z,3.00
2023-04-27T03:36:24.786Z,3.08
2023-04-27T03:38:51.097Z,3.05
2023-04-27T03:41:17.462Z,3.13
2023-04-27T03:43:45.459Z,3.42
2023-04-27T03:46:11.879Z,2.90
2023-04-27T03:48:38.520Z,2.88
2023-04-27T03:51:05.523Z,2.80
2023-04-27T03:53:32.370Z,2.80
2023-04-27T03:55:59.056Z,2.95
2023-04-27T03:58:28.403Z,2.83
2023-04-27T04:00:54.736Z,3.33
2023-04-27T04:03:21.665Z,2.80
2023-04-27T04:05:50.674Z,3.05
2023-04-27T04:08:17.101Z,3.10
2023-04-27T04:10:43.425Z,3.10
2023-04-27T04:13:09.818Z,2.53
2023-04-27T04:15:36.253Z,2.60
2023-04-27T04:18:02.657Z,2.92
2023-04-27T04:20:29.239Z,3.13
2023-04-27T04:22:55.719Z,2.90
2023-04-27T04:25:22.062Z,2.90
2023-04-27T04:27:48.566Z,3.20
2023-04-27T04:30:15.127Z,3.30
2023-04-27T04:32:42.647Z,3.22
2023-04-27T04:35:09.169Z,3.45
2023-04-27T04:37:36.397Z,3.00
2023-04-27T04:40:10.662Z,3.30
2023-04-27T04:42:45.556Z,3.33
2023-04-27T04:45:11.931Z,3.22
2023-04-27T04:47:39.672Z,3.42
2023-04-27T04:50:06.949Z,3.03
2023-04-27T04:52:33.279Z,3.60
2023-04-27T04:54:59.677Z,3.72
2023-04-27T04:57:26.093Z,3.40
2023-04-27T04:59:52.438Z,3.42
2023-04-27T05:02:19.164Z,3.60
2023-04-27T05:04:45.862Z,3.25
2023-04-27T05:07:15.061Z,3.75
2023-04-27T05:09:41.992Z,3.88
2023-04-27T05:12:08.453Z,3.85
2023-04-27T05:14:35.085Z,3.50
2023-04-27T05:17:01.655Z,3.47
2023-04-27T05:19:31.461Z,4.32
2023-04-27T05:21:58.712Z,3.90
2023-04-27T05:24:26.301Z,3.30
2023-04-27T05:26:52.742Z,3.70
2023-04-27T05:29:19.316Z,3.90
2023-04-27T05:31:46.069Z,3.47
2023-04-27T05:34:16.668Z,3.85
2023-04-27T05:36:43.275Z,3.55
2023-04-27T05:39:10.411Z,3.53
2023-04-27T05:41:36.810Z,3.65
2023-04-27T05:44:03.229Z,3.90
2023-04-27T05:46:29.756Z,3.65
2023-04-27T05:48:56.289Z,4.00
2023-04-27T05:51:22.976Z,3.35
2023-04-27T05:53:49.485Z,3.30
2023-04-27T05:56:15.934Z,3.90
2023-04-27T05:58:42.452Z,4.45
2023-04-27T06:01:11.705Z,3.60
2023-04-27T06:03:38.375Z,3.55
2023-04-27T06:06:05.059Z,3.15
2023-04-27T06:08:31.722Z,3.58
2023-04-27T06:10:58.235Z,3.25
2023-04-27T06:13:24.562Z,3.10
2023-04-27T06:15:51.176Z,3.55
2023-04-27T06:18:17.691Z,2.63
2023-04-27T06:20:44.112Z,3.42
2023-04-27T06:23:10.693Z,2.92
2023-04-27T06:25:38.851Z,3.35
2023-04-27T06:28:05.555Z,3.63
2023-04-27T06:30:32.059Z,3.03
2023-04-27T06:32:59.595Z,3.45
2023-04-27T06:35:26.372Z,2.65
2023-04-27T06:37:52.816Z,3.40
2023-04-27T06:40:19.376Z,2.78
2023-04-27T06:42:45.760Z,3.17
2023-04-27T06:45:12.280Z,3.20
2023-04-27T06:47:38.750Z,3.35
2023-04-27T06:50:05.788Z,2.70
2023-04-27T06:52:33.550Z,3.00
2023-04-27T06:54:59.901Z,3.10
2023-04-27T06:57:26.362Z,2.88
2023-04-27T06:59:52.771Z,2.72
2023-04-27T07:02:19.245Z,2.60
2023-04-27T07:04:45.734Z,2.90
2023-04-27T07:07:12.136Z,2.70
2023-04-27T07:09:38.512Z,2.42
2023-04-27T07:12:04.908Z,2.75
2023-04-27T07:14:31.736Z,2.47
2023-04-27T07:16:58.096Z,2.67
2023-04-27T07:19:24.517Z,2.20
2023-04-27T07:21:51.848Z,2.17
2023-04-27T07:24:18.172Z,2.58
2023-04-27T07:26:44.602Z,2.20
2023-04-27T07:29:25.709Z,2.60
2023-04-27T07:31:59.046Z,2.78
2023-04-27T07:34:25.398Z,1.90
2023-04-27T07:36:54.355Z,2.40
2023-04-27T07:39:29.714Z,2.25
2023-04-27T07:41:56.457Z,1.95
2023-04-27T07:44:22.801Z,2.30
2023-04-27T07:46:49.519Z,2.10
2023-04-27T07:49:16.442Z,1.73
2023-04-27T07:51:43.014Z,1.77
2023-04-27T07:54:09.423Z,1.92
2023-04-27T07:56:35.988Z,2.08
2023-04-27T07:59:02.438Z,2.03
2023-04-27T08:01:28.822Z,2.05
2023-04-27T08:03:55.419Z,2.70
2023-04-27T08:06:22.303Z,2.00
2023-04-27T08:08:49.291Z,2.05
2023-04-27T08:11:15.790Z,1.95
2023-04-27T08:13:42.138Z,2.00
2023-04-27T08:16:09.154Z,1.80
2023-04-27T08:18:35.728Z,1.83
2023-04-27T08:21:02.292Z,1.85
2023-04-27T08:23:29.600Z,1.67
2023-04-27T08:25:56.402Z,1.65
2023-04-27T08:28:23.461Z,1.67
2023-04-27T08:30:50.022Z,1.80
2023-04-27T08:33:16.501Z,1.73
2023-04-27T08:35:42.907Z,2.00
2023-04-27T08:38:09.427Z,1.80
2023-04-27T08:40:35.986Z,1.98
2023-04-27T08:43:02.386Z,1.65
2023-04-27T08:45:29.019Z,1.50
2023-04-27T08:47:55.657Z,2.13
2023-04-27T08:50:24.133Z,1.67
2023-04-27T08:52:51.960Z,1.40
2023-04-27T08:55:18.677Z,2.20
2023-04-27T08:57:58.808Z,1.73
2023-04-27T09:00:26.790Z,1.60
2023-04-27T09:02:53.705Z,1.42
2023-04-27T09:05:22.528Z,1.90
2023-04-27T09:08:05.095Z,2.10
2023-04-27T09:10:52.807Z,1.83
2023-04-27T09:13:19.293Z,1.75
2023-04-27T09:15:51.288Z,1.88
2023-04-27T09:18:20.342Z,1.58
2023-04-27T09:23:33.784Z,1.92
2023-04-27T09:26:03.718Z,1.77
2023-04-27T09:28:32.352Z,1.90
2023-04-27T09:31:00.535Z,2.42
2023-04-27T09:33:29.920Z,2.35
2023-04-27T09:35:58.761Z,2.05
2023-04-27T09:38:25.518Z,1.90
2023-04-27T09:40:53.791Z,2.10
2023-04-27T09:43:24.751Z,2.25
2023-04-27T09:45:51.272Z,2.15
2023-04-27T09:48:18.423Z,2.15
2023-04-27T09:50:46.461Z,2.03
2023-04-27T09:53:15.990Z,2.17
2023-04-27T09:56:08.706Z,2.22
2023-04-27T09:59:07.635Z,2.40
2023-04-27T10:01:48.254Z,2.22
2023-04-27T10:04:42.835Z,2.33
2023-04-27T10:07:13.065Z,1.92
2023-04-27T10:09:46.576Z,2.40
2023-04-27T10:12:26.584Z,2.10
2023-04-27T10:14:58.270Z,2.10
2023-04-27T10:17:33.623Z,2.28
2023-04-27T10:20:05.266Z,2.08
2023-04-27T10:22:53.417Z,2.65
2023-04-27T10:25:25.664Z,2.33
2023-04-27T10:27:56.296Z,2.13
2023-04-27T10:30:24.746Z,2.03
2023-04-27T10:32:51.918Z,2.35
2023-04-27T10:35:19.482Z,2.38
2023-04-27T10:37:47.569Z,2.13
2023-04-27T10:40:15.350Z,2.55
2023-04-27T10:42:42.113Z,2.13
2023-04-27T10:45:09.225Z,2.20
2023-04-27T10:47:43.285Z,2.38
2023-04-27T10:50:11.428Z,2.70
2023-04-27T10:52:44.500Z,3.05
2023-04-27T10:55:19.028Z,2.65
2023-04-27T10:57:51.049Z,2.70
2023-04-27T11:00:25.304Z,2.42
2023-04-27T11:02:53.849Z,2.85
2023-04-27T11:05:23.342Z,2.28
2023-04-27T11:07:49.714Z,2.38
2023-04-27T11:10:19.808Z,2.35
2023-04-27T11:12:47.738Z,2.60
2023-04-27T11:15:14.450Z,2.50
2023-04-27T11:17:41.656Z,2.50
2023-04-27T11:20:11.561Z,3.03
2023-04-27T11:22:48.373Z,2.72
2023-04-27T11:25:14.836Z,2.65
2023-04-27T11:27:42.058Z,2.72
2023-04-27T11:30:21.336Z,2.30
2023-04-27T11:32:48.294Z,2.53
2023-04-27T11:35:15.008Z,2.60
2023-04-27T11:37:41.647Z,2.30
2023-04-27T11:40:09.301Z,2.58
2023-04-27T11:42:35.907Z,2.88
2023-04-27T11:45:06.039Z,2.85
2023-04-27T11:47:33.674Z,2.60
2023-04-27T11:50:02.253Z,2.45
2023-04-27T11:52:30.162Z,2.75
2023-04-27T11:54:56.873Z,2.42
2023-04-27T11:57:28.591Z,2.65
2023-04-27T11:59:57.132Z,2.35
2023-04-27T12:02:25.413Z,2.92
2023-04-27T12:04:52.302Z,2.90
2023-04-27T12:07:19.679Z,2.97
2023-04-27T12:09:46.792Z,2.65
2023-04-27T12:12:14.578Z,2.70
2023-04-27T12:14:41.735Z,2.45
2023-04-27T12:17:11.027Z,2.78
2023-04-27T12:19:38.008Z,2.83
2023-04-27T12:22:05.224Z,2.72
2023-04-27T12:24:32.361Z,2.53
2023-04-27T12:26:59.658Z,2.63
2023-04-27T12:29:26.414Z,2.90
2023-04-27T12:31:58.226Z,2.45
2023-04-27T12:34:24.714Z,3.40
2023-04-27T12:36:51.187Z,2.92
2023-04-27T12:39:22.808Z,2.90
2023-04-27T12:41:50.406Z,3.15
2023-04-27T12:44:18.852Z,3.53
2023-04-27T12:46:46.196Z,2.88
2023-04-27T12:49:12.656Z,2.78
2023-04-27T12:51:39.206Z,3.03
2023-04-27T12:54:07.475Z,2.78
2023-04-27T12:56:36.900Z,2.90
2023-04-27T12:59:03.836Z,3.10
2023-04-27T13:01:33.296Z,3.05
2023-04-27T13:04:04.761Z,3.40
2023-04-27T13:06:32.009Z,2.63
2023-04-27T13:08:59.669Z,3.30
2023-04-27T13:11:27.261Z,3.15
2023-04-27T13:13:54.932Z,3.00
2023-04-27T13:16:22.639Z,3.45
2023-04-27T13:18:52.021Z,3.17
2023-04-27T13:21:18.787Z,3.00
2023-04-27T13:23:45.281Z,3.22
2023-04-27T13:26:11.772Z,3.55
2023-04-27T13:28:38.237Z,3.38
2023-04-27T13:31:05.399Z,3.53
2023-04-27T13:33:33.067Z,3.30
2023-04-27T13:36:03.355Z,2.83
2023-04-27T13:38:29.811Z,3.10
2023-04-27T13:40:56.491Z,3.10
2023-04-27T13:43:24.533Z,2.85
2023-04-27T13:45:52.621Z,3.15
2023-04-27T13:48:19.404Z,3.10
2023-04-27T13:50:47.794Z,3.03
2023-04-27T13:53:16.636Z,3.08
2023-04-27T13:55:44.197Z,2.80
2023-04-27T13:58:11.006Z,2.50
2023-04-27T14:00:38.058Z,3.08
2023-04-27T14:03:05.012Z,2.42
2023-04-27T14:05:32.035Z,3.03
2023-04-27T14:07:58.402Z,2.50
2023-04-27T14:10:24.854Z,2.28
2023-04-27T14:12:51.550Z,2.70
2023-04-27T14:15:18.006Z,3.00
2023-04-27T14:17:44.463Z,2.28
2023-04-27T14:20:11.280Z,2.38
2023-04-27T14:22:37.768Z,2.45
2023-04-27T14:25:04.714Z,2.65
2023-04-27T14:27:31.516Z,2.72
2023-04-27T14:29:57.915Z,2.67
2023-04-27T14:32:24.434Z,2.85
2023-04-27T14:34:51.451Z,2.72
2023-04-27T14:37:17.958Z,2.60
2023-04-27T14:39:46.131Z,2.42
2023-04-27T14:42:12.647Z,2.40
2023-04-27T14:44:39.008Z,2.45
2023-04-27T14:47:06.348Z,2.20
2023-04-27T14:49:32.895Z,2.58
2023-04-27T14:52:03.115Z,2.15
2023-04-27T14:54:29.670Z,2.45
2023-04-27T14:56:58.211Z,2.42
2023-04-27T14:59:25.365Z,2.28
2023-04-27T15:01:51.900Z,2.33
2023-04-27T15:04:18.511Z,2.05
2023-04-27T15:06:45.302Z,2.03
2023-04-27T15:09:11.865Z,2.00
2023-04-27T15:11:38.866Z,1.85
2023-04-27T15:14:05.495Z,2.00
2023-04-27T15:16:31.989Z,1.65
2023-04-27T15:18:58.480Z,2.00
2023-04-27T15:21:24.817Z,1.70
2023-04-27T15:23:51.344Z,1.90
2023-04-27T15:26:17.785Z,2.10
2023-04-27T15:28:44.307Z,1.90
2023-04-27T15:31:10.750Z,2.10
2023-04-27T15:33:37.194Z,1.90
2023-04-27T15:36:03.964Z,1.88
2023-04-27T15:38:30.387Z,1.60
2023-04-27T15:40:59.044Z,1.63
2023-04-27T15:43:25.664Z,1.90
2023-04-27T15:46:00.564Z,1.85
2023-04-27T15:48:26.949Z,1.92
2023-04-27T15:50:53.332Z,2.20
2023-04-27T15:53:19.898Z,2.03
2023-04-27T15:55:46.385Z,1.75
2023-04-27T15:58:12.742Z,1.83
2023-04-27T16:00:39.288Z,1.80
2023-04-27T16:03:09.434Z,1.67
2023-04-27T16:05:37.216Z,2.28
2023-04-27T16:08:03.730Z,1.90
2023-04-27T16:10:30.132Z,2.08
2023-04-27T16:12:56.460Z,1.98
2023-04-27T16:15:22.977Z,2.28
2023-04-27T16:17:49.472Z,2.00
2023-04-27T16:20:16.226Z,1.85
2023-04-27T16:22:42.562Z,2.10
2023-04-27T16:25:12.219Z,2.15
2023-04-27T16:27:39.300Z,1.80
2023-04-27T16:30:09.246Z,2.00
2023-04-27T16:32:37.503Z,2.08
2023-04-27T16:35:04.279Z,2.38
2023-04-27T16:37:32.647Z,1.92
2023-04-27T16:40:06.297Z,2.28
2023-04-27T16:42:33.070Z,2.00
2023-04-27T16:45:02.055Z,2.00
2023-04-27T16:47:28.772Z,2.28
2023-04-27T16:49:55.219Z,2.00
2023-04-27T16:52:21.638Z,2.35
2023-04-27T16:54:47.992Z,1.80
2023-04-27T16:57:14.470Z,2.30
2023-04-27T16:59:41.527Z,2.30
2023-04-27T17:02:23.225Z,2.15
2023-04-27T17:04:51.148Z,2.40
2023-04-27T17:07:17.640Z,2.40
2023-04-27T17:09:44.173Z,2.15
2023-04-27T17:12:14.684Z,2.08
2023-04-27T17:14:41.695Z,2.42
2023-04-27T17:17:08.038Z,2.20
2023-04-27T17:19:34.473Z,2.42
2023-04-27T17:22:00.925Z,2.10
2023-04-27T17:24:27.437Z,2.38
2023-04-27T17:26:53.954Z,2.55
2023-04-27T17:29:23.359Z,2.83
2023-04-27T17:31:50.462Z,3.13
2023-04-27T17:34:17.585Z,2.40
2023-04-27T17:36:44.210Z,2.70
2023-04-27T17:39:12.774Z,3.30
2023-04-27T17:41:39.541Z,2.80
2023-04-27T17:44:06.310Z,3.10
2023-04-27T17:46:33.266Z,2.85
2023-04-27T17:48:59.828Z,2.60
2023-04-27T17:51:27.054Z,2.90
2023-04-27T17:53:53.469Z,2.97
2023-04-27T17:56:19.863Z,2.80
2023-04-27T17:58:46.827Z,2.78
2023-04-27T18:01:13.318Z,2.78
2023-04-27T18:03:41.809Z,2.80
2023-04-27T18:06:08.884Z,2.97
2023-04-27T18:08:35.339Z,3.05
2023-04-27T18:11:01.798Z,3.03
2023-04-27T18:13:28.492Z,3.30
2023-04-27T18:15:55.012Z,2.80
2023-04-27T18:18:23.189Z,2.97
2023-04-27T18:20:51.109Z,2.83
2023-04-27T18:23:17.585Z,3.13
2023-04-27T18:25:50.136Z,2.90
2023-04-27T18:28:19.546Z,2.95
2023-04-27T18:30:46.001Z,3.05
2023-04-27T18:33:14.780Z,3.47
2023-04-27T18:35:41.376Z,3.17
2023-04-27T18:38:07.766Z,2.92
2023-04-27T18:40:36.114Z,3.45
2023-04-27T18:43:02.607Z,2.90
2023-04-27T18:45:29.101Z,3.38
2023-04-27T18:47:55.684Z,3.22
2023-04-27T18:50:22.373Z,3.65
2023-04-27T18:52:48.768Z,3.10
2023-04-27T18:55:21.530Z,3.35
2023-04-27T18:57:48.016Z,3.08
2023-04-27T19:00:14.940Z,3.33
2023-04-27T19:02:41.298Z,3.30
2023-04-27T19:05:13.098Z,3.65
2023-04-27T19:07:40.331Z,3.30
2023-04-27T19:10:07.406Z,3.25
2023-04-27T19:12:33.826Z,3.00
2023-04-27T19:15:00.197Z,3.25
2023-04-27T19:17:26.765Z,3.50
2023-04-27T19:19:53.539Z,3.65
2023-04-27T19:22:19.904Z,3.13
2023-04-27T19:24:46.368Z,3.47
2023-04-27T19:27:18.933Z,3.65
2023-04-27T19:29:53.021Z,3.30
2023-04-27T19:32:19.859Z,3.88
2023-04-27T19:34:46.880Z,3.10
2023-04-27T19:37:13.854Z,3.20
2023-04-27T19:39:40.359Z,2.97
2023-04-27T19:42:06.796Z,3.88
2023-04-27T19:44:33.215Z,3.35
2023-04-27T19:46:59.538Z,3.40
2023-04-27T19:49:28.877Z,3.25
2023-04-27T19:51:55.185Z,3.55
2023-04-27T19:54:21.580Z,3.42
2023-04-27T19:56:47.956Z,3.65
2023-04-27T19:59:15.170Z,3.70
2023-04-27T20:01:42.169Z,3.65
2023-04-27T20:04:13.515Z,3.28
2023-04-27T20:06:40.957Z,4.20
2023-04-27T20:09:07.948Z,4.50
2023-04-27T20:11:37.357Z,3.90
2023-04-27T20:14:03.771Z,4.38
2023-04-27T20:16:30.483Z,3.80
2023-04-27T20:18:57.030Z,4.07
2023-04-27T20:21:23.431Z,3.35
2023-04-27T20:23:50.170Z,3.38
2023-04-27T20:26:16.554Z,3.38
2023-04-27T20:28:42.996Z,2.85
2023-04-27T20:31:09.449Z,3.10
2023-04-27T20:33:35.971Z,3.08
2023-04-27T20:36:16.139Z,3.42
2023-04-27T20:38:43.637Z,3.10
2023-04-27T20:41:12.137Z,2.83
2023-04-27T20:43:41.730Z,3.90
2023-04-27T20:46:12.837Z,4.20
2023-04-27T20:48:39.389Z,5.15
2023-04-27T20:51:05.840Z,3.10
2023-04-27T20:53:32.180Z,3.15
2023-04-27T20:55:58.615Z,3.33
2023-04-27T20:58:25.066Z,3.60
2023-04-27T21:00:51.549Z,3.83
2023-04-27T21:03:17.994Z,3.85
2023-04-27T21:05:49.046Z,3.22
2023-04-27T21:08:16.761Z,4.15
2023-04-27T21:10:44.018Z,3.40
2023-04-27T21:13:10.406Z,3.10
2023-04-27T21:15:37.786Z,3.28
2023-04-27T21:20:33.259Z,3.22
2023-04-27T21:22:59.663Z,3.10
2023-04-27T21:25:26.048Z,3.65
2023-04-27T21:27:52.548Z,3.30
2023-04-27T21:30:18.890Z,3.28
2023-04-27T21:32:45.600Z,3.58
2023-04-27T21:35:12.053Z,3.00
2023-04-27T21:37:38.585Z,3.33
2023-04-27T21:40:06.519Z,3.20
2023-04-27T21:42:33.078Z,3.08
2023-04-27T21:44:59.563Z,3.55
2023-04-27T21:47:26.401Z,3.25
2023-04-27T21:49:54.021Z,3.22
2023-04-27T21:52:21.457Z,3.10
2023-04-27T21:54:47.859Z,3.65
2023-04-27T21:57:14.184Z,3.42
2023-04-27T21:59:40.636Z,3.45
2023-04-27T22:02:08.066Z,3.60
2023-04-27T22:04:36.080Z,3.20
2023-04-27T22:07:02.633Z,3.17
2023-04-27T22:09:29.156Z,3.08
2023-04-27T22:11:55.751Z,3.65
2023-04-27T22:14:22.250Z,3.35
2023-04-27T22:16:49.491Z,3.00
2023-04-27T22:19:17.845Z,3.20
2023-04-27T22:21:44.836Z,3.50
2023-04-27T22:24:11.275Z,3.50
2023-04-27T22:26:37.668Z,3.40
2023-04-27T22:29:04.029Z,3.58
2023-04-27T22:31:31.784Z,3.40
2023-04-27T22:33:58.451Z,3.40
2023-04-27T22:36:24.971Z,3.40
2023-04-27T22:38:51.499Z,3.83
2023-04-27T22:41:19.149Z,3.53
2023-04-27T22:43:45.483Z,3.35
2023-04-27T22:46:11.814Z,3.60
2023-04-27T22:48:38.199Z,3.22
2023-04-27T22:51:08.849Z,3.63
2023-04-27T22:53:35.322Z,2.97
2023-04-27T22:56:01.690Z,3.58
2023-04-27T22:58:28.075Z,3.75
2023-04-27T23:00:54.482Z,3.28
2023-04-27T23:03:21.021Z,3.58
2023-04-27T23:05:47.586Z,3.67
2023-04-27T23:08:16.897Z,3.38
2023-04-27T23:10:43.232Z,3.30
2023-04-27T23:13:12.798Z,3.53
2023-04-27T23:15:41.908Z,3.30
2023-04-27T23:20:34.747Z,3.38
2023-04-27T23:23:05.256Z,2.83
2023-04-27T23:25:32.964Z,3.22
2023-04-27T23:27:59.387Z,3.42
2023-04-27T23:30:25.833Z,3.60
2023-04-27T23:32:52.419Z,3.42
2023-04-27T23:35:18.937Z,3.13
2023-04-27T23:37:45.292Z,3.00
2023-04-27T23:40:12.173Z,3.15
2023-04-27T23:42:38.580Z,3.03
2023-04-27T23:45:05.370Z,3.85
2023-04-27T23:47:33.791Z,3.63
2023-04-27T23:50:02.130Z,3.40
2023-04-27T23:52:28.495Z,3.30
2023-04-27T23:54:54.931Z,3.30
2023-04-27T23:57:21.395Z,3.13
2023-04-27T23:59:47.791Z,2.70
